Hoek Van Holland, Netherlands
Current Conditions -  °F | °C
As of 4:55 AM on Friday 31 Oct 2014 (Local Time) from EHRD Reporting Station
Clear Clear  
Wind Chill: 55°   Ceiling: Unl
Heat Index: 55°   Visibility: 5mi
Dew Point: 54°   Wind: 8mph
Humidity: 94%   Direction: 190°S
Pressure: 30.12"   Gusts: NA
Location:  51.98°N, 4.13°E
Report Text: EHRD 310355Z AUTO 19007KT 160V220 8000 NSC 13/12 Q1020 NOSIG
Loading
Personal Weather Stations






























Interactive Weather Map
Tropical Storm Tracking
New forecast layout! Learn more

10-Day Weather Forecast

Advertisements
Track Severe Weather on mobile